Time;durP1;ratioP1;P1;durP2;ratioP2;P2;SDS_P1;SDS_P2;PMS_P1;PMS_P2;Temp;Humidity;BMP_temperature;BMP_pressure;BME280_temperature;BME280_humidity;BME280_pressure;Samples;Min_cycle;Max_cycle;Signal;HPM_P1;HPM_P2
2024/03/15 00:01:07;;;;;;;5.82;3.58;;;14.50;99.90;;;;;;4160444;28;20041;-66
2024/03/15 00:03:10;;;;;;;6.40;4.10;;;14.40;99.90;;;;;;4161665;28;20042;-66
2024/03/15 00:05:11;;;;;;;5.88;4.03;;;14.40;99.90;;;;;;4159001;28;20046;-70
2024/03/15 00:07:12;;;;;;;5.07;3.78;;;14.40;99.90;;;;;;4154726;28;20045;-71
2024/03/15 00:09:12;;;;;;;5.53;3.17;;;14.40;99.90;;;;;;4159935;28;20095;-70
2024/03/15 00:11:13;;;;;;;6.97;4.28;;;14.40;99.90;;;;;;4159562;28;20030;-70
2024/03/15 00:13:14;;;;;;;5.00;3.40;;;14.40;99.90;;;;;;4160576;28;20557;-70
2024/03/15 00:15:14;;;;;;;7.15;3.33;;;14.40;99.90;;;;;;4155575;28;20406;-70
2024/03/15 00:17:15;;;;;;;6.20;3.50;;;14.40;99.90;;;;;;4159768;28;20056;-70
2024/03/15 00:19:15;;;;;;;5.20;2.97;;;14.40;99.90;;;;;;4160618;28;20038;-71
2024/03/15 00:21:17;;;;;;;7.22;3.70;;;14.40;99.90;;;;;;4157961;28;20041;-71
2024/03/15 00:23:17;;;;;;;6.65;3.50;;;14.30;99.90;;;;;;4157427;28;20045;-70
2024/03/15 00:25:21;;;;;;;5.07;3.40;;;14.30;99.90;;;;;;4156933;28;20119;-70
2024/03/15 00:27:21;;;;;;;5.85;3.35;;;14.30;99.90;;;;;;4159614;28;20034;-71
2024/03/15 00:29:22;;;;;;;5.10;3.70;;;14.30;99.90;;;;;;4153938;28;20060;-70
2024/03/15 00:31:23;;;;;;;6.20;3.60;;;14.30;99.90;;;;;;4161004;28;20087;-69
2024/03/15 00:33:23;;;;;;;4.82;3.45;;;14.30;99.90;;;;;;4157135;28;20060;-69
2024/03/15 00:35:24;;;;;;;5.90;3.25;;;14.30;99.90;;;;;;4154387;28;20038;-70
2024/03/15 00:37:25;;;;;;;8.88;3.58;;;14.20;99.90;;;;;;4161040;28;20042;-70
2024/03/15 00:39:26;;;;;;;7.95;3.85;;;14.20;99.90;;;;;;4159875;28;20469;-71
2024/03/15 00:41:26;;;;;;;6.70;3.53;;;14.30;99.90;;;;;;4159774;28;20134;-70
2024/03/15 00:43:27;;;;;;;7.63;3.92;;;14.30;99.90;;;;;;4160748;28;20025;-70
2024/03/15 00:45:28;;;;;;;4.90;3.50;;;14.20;99.90;;;;;;4159526;28;20137;-71
2024/03/15 00:47:28;;;;;;;8.98;4.40;;;14.30;99.90;;;;;;4157857;28;20615;-68
2024/03/15 00:49:29;;;;;;;8.88;4.03;;;14.20;99.90;;;;;;4158218;28;20041;-70
2024/03/15 00:51:30;;;;;;;6.75;3.78;;;14.20;99.90;;;;;;4155034;28;20401;-70
2024/03/15 00:53:31;;;;;;;6.43;4.00;;;14.20;99.90;;;;;;4158636;28;20068;-70
2024/03/15 00:55:32;;;;;;;6.47;3.60;;;14.20;99.90;;;;;;4153822;28;20095;-74
2024/03/15 00:57:32;;;;;;;5.05;3.10;;;14.20;99.90;;;;;;4147368;28;21216;-70
2024/03/15 00:59:34;;;;;;;4.72;3.20;;;14.20;99.90;;;;;;4157072;28;20037;-70
2024/03/15 01:01:35;;;;;;;5.30;3.78;;;14.20;99.90;;;;;;4182648;28;20033;-70
2024/03/15 01:03:36;;;;;;;6.32;3.33;;;14.20;99.90;;;;;;4166001;28;20412;-71
2024/03/15 01:05:37;;;;;;;5.32;3.03;;;14.20;99.90;;;;;;4159657;28;20093;-70
2024/03/15 01:07:37;;;;;;;5.50;3.25;;;14.20;99.90;;;;;;4152427;28;20033;-70
2024/03/15 01:09:38;;;;;;;5.25;3.25;;;14.20;99.90;;;;;;4156931;28;20433;-70
2024/03/15 01:11:39;;;;;;;5.35;3.58;;;14.20;99.90;;;;;;4153994;28;20041;-71
2024/03/15 01:13:41;;;;;;;6.78;3.60;;;14.20;99.90;;;;;;4160367;28;20490;-69
2024/03/15 01:15:42;;;;;;;4.72;2.95;;;14.10;99.90;;;;;;4158317;28;20478;-65
2024/03/15 01:17:43;;;;;;;5.72;2.88;;;14.10;99.90;;;;;;4156476;28;20061;-65
2024/03/15 01:19:45;;;;;;;4.60;2.92;;;14.20;99.90;;;;;;4157186;28;20052;-65
2024/03/15 01:21:45;;;;;;;5.33;3.17;;;14.20;99.90;;;;;;4157199;28;20034;-65
2024/03/15 01:23:47;;;;;;;7.15;3.20;;;14.10;99.90;;;;;;4154189;28;20780;-65
2024/03/15 01:25:48;;;;;;;6.32;3.67;;;14.10;99.90;;;;;;4157609;28;20025;-65
2024/03/15 01:27:48;;;;;;;6.05;3.10;;;14.10;99.90;;;;;;4155221;28;20045;-65
2024/03/15 01:29:49;;;;;;;5.00;3.35;;;14.20;99.90;;;;;;4153266;28;20099;-65
2024/03/15 01:31:50;;;;;;;5.15;3.00;;;14.10;99.90;;;;;;4160750;28;20034;-65
2024/03/15 01:33:50;;;;;;;3.95;2.78;;;14.10;99.90;;;;;;4157387;28;20430;-65
2024/03/15 01:35:51;;;;;;;4.53;2.78;;;14.10;99.90;;;;;;4158328;28;20046;-65
2024/03/15 01:37:52;;;;;;;4.93;3.13;;;14.10;99.90;;;;;;4160548;28;20421;-65
2024/03/15 01:39:53;;;;;;;5.90;3.30;;;14.10;99.90;;;;;;4160921;28;20032;-65
2024/03/15 01:41:53;;;;;;;6.72;3.30;;;14.10;99.90;;;;;;4156239;28;20025;-65
2024/03/15 01:43:54;;;;;;;5.47;3.10;;;14.10;99.90;;;;;;4157422;28;20037;-65
2024/03/15 01:45:55;;;;;;;5.38;3.35;;;14.10;99.90;;;;;;4161506;28;20033;-65
2024/03/15 01:47:56;;;;;;;3.83;3.03;;;14.10;99.90;;;;;;4152637;28;20034;-65
2024/03/15 01:49:58;;;;;;;5.65;3.08;;;14.10;99.90;;;;;;4158398;28;20076;-65
2024/03/15 01:51:58;;;;;;;6.63;3.28;;;14.10;99.90;;;;;;4159120;28;20042;-65
2024/03/15 01:54:00;;;;;;;4.93;2.75;;;14.10;99.90;;;;;;4152232;28;20384;-65
2024/03/15 01:56:00;;;;;;;6.50;3.15;;;14.10;99.90;;;;;;4156552;28;20418;-65
2024/03/15 01:58:01;;;;;;;4.43;2.90;;;14.10;99.90;;;;;;4156071;28;20040;-66
2024/03/15 02:00:05;;;;;;;4.03;2.75;;;14.10;99.90;;;;;;4156570;28;20498;-67
2024/03/15 02:02:06;;;;;;;5.30;3.10;;;14.10;99.90;;;;;;4158581;28;20034;-65
2024/03/15 02:04:07;;;;;;;4.85;2.80;;;14.10;99.90;;;;;;4152630;28;20049;-65
2024/03/15 02:06:08;;;;;;;4.60;2.50;;;14.10;99.90;;;;;;4162471;28;20485;-65
2024/03/15 02:08:15;;;;;;;6.30;3.05;;;14.10;99.90;;;;;;4160935;28;20454;-65
2024/03/15 02:10:16;;;;;;;4.00;2.80;;;14.10;99.90;;;;;;4156418;28;20076;-65
2024/03/15 02:12:17;;;;;;;7.20;3.38;;;14.10;99.90;;;;;;4161220;28;20117;-65
2024/03/15 02:14:18;;;;;;;4.47;2.75;;;14.10;99.90;;;;;;4159666;28;20064;-65
2024/03/15 02:16:18;;;;;;;5.07;3.10;;;14.10;99.90;;;;;;4161381;28;20048;-65
2024/03/15 02:18:19;;;;;;;4.78;3.00;;;14.00;99.90;;;;;;4152461;28;20030;-65
2024/03/15 02:20:22;;;;;;;4.82;2.83;;;14.10;99.90;;;;;;4146803;28;20083;-65
2024/03/15 02:22:23;;;;;;;5.35;2.92;;;14.00;99.90;;;;;;4140310;28;20030;-65
2024/03/15 02:24:23;;;;;;;4.07;2.60;;;14.10;99.90;;;;;;4175046;28;20564;-65
2024/03/15 02:26:24;;;;;;;4.28;2.80;;;14.00;99.90;;;;;;4148137;28;20548;-65
2024/03/15 02:28:25;;;;;;;4.63;2.80;;;14.10;99.90;;;;;;4156312;28;20033;-65
2024/03/15 02:30:26;;;;;;;3.55;2.70;;;14.00;99.90;;;;;;4157090;28;20406;-65
2024/03/15 02:32:27;;;;;;;5.82;3.00;;;14.00;99.90;;;;;;4157855;28;20036;-65
2024/03/15 02:34:27;;;;;;;4.53;2.83;;;14.00;99.90;;;;;;4155136;28;20040;-65
2024/03/15 02:36:28;;;;;;;7.68;2.67;;;14.00;99.90;;;;;;4156120;28;20044;-65
2024/03/15 02:38:28;;;;;;;5.95;2.72;;;14.00;99.90;;;;;;4155901;28;20481;-65
2024/03/15 02:40:29;;;;;;;5.63;3.22;;;14.00;99.90;;;;;;4153376;28;20099;-65
2024/03/15 02:42:29;;;;;;;8.52;3.45;;;14.00;99.90;;;;;;4155490;28;20096;-65
2024/03/15 02:44:30;;;;;;;4.03;2.53;;;14.00;99.90;;;;;;4158698;28;20097;-65
2024/03/15 02:46:31;;;;;;;5.38;2.90;;;14.00;99.90;;;;;;4156277;28;20033;-66
2024/03/15 02:48:41;;;;;;;7.05;3.13;;;14.00;99.90;;;;;;4155687;28;20044;-64
2024/03/15 02:50:41;;;;;;;5.65;2.40;;;14.00;99.90;;;;;;4156133;28;20034;-65
2024/03/15 02:52:43;;;;;;;6.13;2.72;;;14.00;99.90;;;;;;4152780;28;20445;-65
2024/03/15 02:54:44;;;;;;;5.07;2.33;;;14.10;99.90;;;;;;4151737;28;20394;-64
2024/03/15 02:56:44;;;;;;;5.15;2.85;;;14.00;99.90;;;;;;4152190;28;20266;-65
2024/03/15 02:58:46;;;;;;;4.90;2.80;;;14.00;99.90;;;;;;4153141;28;20076;-64
2024/03/15 03:00:47;;;;;;;3.17;1.92;;;14.00;99.90;;;;;;4150834;28;20034;-65
2024/03/15 03:02:47;;;;;;;4.88;2.53;;;14.00;99.90;;;;;;4157803;28;20041;-65
2024/03/15 03:04:48;;;;;;;4.55;2.42;;;14.00;99.90;;;;;;4156059;28;20053;-65
2024/03/15 03:06:49;;;;;;;4.95;2.53;;;14.00;99.90;;;;;;4160808;28;20410;-65
2024/03/15 03:08:49;;;;;;;3.40;2.40;;;14.00;99.90;;;;;;4157402;28;20494;-65
2024/03/15 03:10:50;;;;;;;3.20;2.13;;;14.00;99.90;;;;;;4152691;28;20476;-64
2024/03/15 03:12:50;;;;;;;3.78;2.50;;;14.00;99.90;;;;;;4157596;28;20068;-65
2024/03/15 03:14:51;;;;;;;4.13;2.03;;;14.00;99.90;;;;;;4156621;28;20159;-65
2024/03/15 03:16:52;;;;;;;4.03;2.60;;;14.10;99.90;;;;;;4157441;28;20029;-65
2024/03/15 03:18:55;;;;;;;3.60;2.08;;;14.00;99.90;;;;;;4159551;28;20962;-65
2024/03/15 03:20:56;;;;;;;3.08;2.20;;;14.00;99.90;;;;;;4156077;28;20037;-65
2024/03/15 03:22:56;;;;;;;3.72;2.13;;;14.00;99.90;;;;;;4157578;28;20060;-65
2024/03/15 03:24:57;;;;;;;6.55;2.58;;;14.00;99.90;;;;;;4160908;28;20088;-65
2024/03/15 03:26:57;;;;;;;6.90;2.58;;;14.00;99.90;;;;;;4159304;28;20397;-65
2024/03/15 03:28:58;;;;;;;3.47;2.40;;;14.00;99.90;;;;;;4160343;28;20058;-64
2024/03/15 03:30:59;;;;;;;4.88;2.47;;;14.00;99.90;;;;;;4160861;28;20125;-64
2024/03/15 03:32:59;;;;;;;4.85;2.38;;;14.00;99.90;;;;;;4156937;28;20042;-64
2024/03/15 03:35:01;;;;;;;4.38;2.42;;;14.00;99.90;;;;;;4163890;28;20371;-70
2024/03/15 03:37:01;;;;;;;5.60;2.50;;;13.90;99.90;;;;;;4155748;28;20041;-70
2024/03/15 03:39:02;;;;;;;4.05;2.65;;;14.00;99.90;;;;;;4157124;28;20041;-71
2024/03/15 03:41:03;;;;;;;4.82;2.35;;;14.00;99.90;;;;;;4157715;28;20029;-70
2024/03/15 03:43:04;;;;;;;3.58;2.05;;;14.00;99.90;;;;;;4159186;28;20476;-68
2024/03/15 03:45:15;;;;;;;3.88;2.35;;;14.00;99.90;;;;;;4161074;28;20038;-69
2024/03/15 03:47:16;;;;;;;3.20;2.20;;;14.00;99.90;;;;;;4160784;28;20357;-70
2024/03/15 03:49:17;;;;;;;2.55;1.80;;;14.00;99.90;;;;;;4160449;28;20078;-70
2024/03/15 03:51:18;;;;;;;2.72;1.85;;;14.00;99.90;;;;;;4158609;28;20057;-70
2024/03/15 03:53:20;;;;;;;2.83;2.03;;;14.00;99.90;;;;;;4159323;28;20034;-70
2024/03/15 03:55:21;;;;;;;6.35;2.05;;;14.00;99.90;;;;;;4161364;28;20632;-71
2024/03/15 03:57:21;;;;;;;5.00;2.42;;;14.00;99.90;;;;;;4164708;28;20037;-70
2024/03/15 03:59:22;;;;;;;5.50;2.50;;;14.00;99.90;;;;;;4159973;28;20034;-71
2024/03/15 04:01:23;;;;;;;5.07;2.53;;;14.00;99.90;;;;;;4154838;28;20029;-70
2024/03/15 04:03:25;;;;;;;7.85;2.80;;;14.00;99.90;;;;;;4154605;28;20037;-71
2024/03/15 04:05:26;;;;;;;5.32;2.33;;;14.00;99.90;;;;;;4159004;28;20049;-70
2024/03/15 04:07:32;;;;;;;3.30;2.20;;;14.00;99.90;;;;;;4156586;28;20036;-70
2024/03/15 04:09:34;;;;;;;5.18;2.45;;;14.00;99.90;;;;;;4155420;28;20050;-71
2024/03/15 04:11:35;;;;;;;3.83;2.15;;;14.00;99.90;;;;;;4159625;28;20045;-69
2024/03/15 04:13:36;;;;;;;4.20;2.33;;;14.00;99.90;;;;;;4159171;28;20046;-71
2024/03/15 04:15:36;;;;;;;4.70;2.30;;;14.00;99.90;;;;;;4155902;28;20041;-70
2024/03/15 04:17:40;;;;;;;3.47;2.25;;;14.00;99.90;;;;;;4158068;28;20041;-70
2024/03/15 04:19:40;;;;;;;6.07;2.35;;;14.10;99.90;;;;;;4158309;28;20045;-70
2024/03/15 04:21:42;;;;;;;3.38;2.08;;;14.00;99.90;;;;;;4158092;28;20449;-70
2024/03/15 04:23:42;;;;;;;3.63;2.00;;;14.10;99.90;;;;;;4157715;28;20438;-71
2024/03/15 04:25:43;;;;;;;4.97;2.30;;;14.10;99.90;;;;;;4159293;28;20037;-71
2024/03/15 04:27:44;;;;;;;5.88;2.30;;;14.10;99.90;;;;;;4158399;28;20033;-70
2024/03/15 04:29:45;;;;;;;5.55;2.08;;;14.10;99.90;;;;;;4158928;28;20474;-71
2024/03/15 04:31:45;;;;;;;5.43;2.22;;;14.10;99.90;;;;;;4157636;28;22799;-71
2024/03/15 04:33:48;;;;;;;4.18;2.03;;;14.10;99.90;;;;;;4161957;28;20049;-71
2024/03/15 04:35:50;;;;;;;4.68;2.10;;;14.10;99.90;;;;;;4159053;28;20034;-70
2024/03/15 04:37:51;;;;;;;4.57;2.22;;;14.20;99.90;;;;;;4157659;28;20048;-70
2024/03/15 04:39:51;;;;;;;4.05;2.28;;;14.10;99.90;;;;;;4156997;28;20073;-70
2024/03/15 04:41:52;;;;;;;4.32;2.13;;;14.20;99.90;;;;;;4157496;28;20033;-70
2024/03/15 04:43:52;;;;;;;3.92;2.22;;;14.20;99.90;;;;;;4159972;28;20056;-65
2024/03/15 04:45:53;;;;;;;4.38;2.08;;;14.20;99.90;;;;;;4155331;28;20044;-59
2024/03/15 04:47:54;;;;;;;5.07;2.60;;;14.20;99.90;;;;;;4157547;28;20064;-59
2024/03/15 04:49:55;;;;;;;3.90;2.22;;;14.20;99.90;;;;;;4154349;28;24875;-59
2024/03/15 04:51:56;;;;;;;4.57;2.50;;;14.20;99.90;;;;;;4170931;28;20502;-59
2024/03/15 04:53:56;;;;;;;4.55;2.42;;;14.20;99.90;;;;;;4153618;28;20044;-60
2024/03/15 04:55:58;;;;;;;3.70;2.17;;;14.20;99.90;;;;;;4155531;28;20029;-59
2024/03/15 04:58:00;;;;;;;3.50;2.30;;;14.20;99.90;;;;;;4156889;28;20459;-59
2024/03/15 05:00:01;;;;;;;5.40;2.17;;;14.20;99.90;;;;;;4150951;28;20052;-59
2024/03/15 05:02:01;;;;;;;4.07;2.47;;;14.20;99.90;;;;;;4150441;28;20030;-60
2024/03/15 05:04:02;;;;;;;8.98;2.63;;;14.20;99.90;;;;;;4159889;28;20053;-59
2024/03/15 05:06:04;;;;;;;5.65;2.78;;;14.20;99.90;;;;;;4154280;28;20046;-58
2024/03/15 05:08:06;;;;;;;5.55;2.65;;;14.20;99.90;;;;;;4157817;28;20484;-59
2024/03/15 05:10:07;;;;;;;5.38;2.67;;;14.20;99.90;;;;;;4137619;28;20076;-60
2024/03/15 05:12:08;;;;;;;6.20;2.10;;;14.20;99.90;;;;;;4158644;28;20120;-66
2024/03/15 05:14:08;;;;;;;3.90;2.10;;;14.10;99.90;;;;;;4157086;28;20038;-66
2024/03/15 05:16:14;;;;;;;4.05;2.10;;;14.20;99.90;;;;;;4158011;28;20037;-60
2024/03/15 05:18:15;;;;;;;3.67;2.10;;;14.20;99.90;;;;;;4158416;28;20041;-59
2024/03/15 05:20:15;;;;;;;3.80;2.10;;;14.20;99.90;;;;;;4156838;28;20049;-59
2024/03/15 05:22:17;;;;;;;3.50;2.20;;;14.20;99.90;;;;;;4160660;28;20143;-59
2024/03/15 05:24:18;;;;;;;4.60;2.03;;;14.20;99.90;;;;;;4155891;28;20148;-59
2024/03/15 05:26:20;;;;;;;3.13;1.77;;;14.20;99.90;;;;;;4155284;28;20068;-66
2024/03/15 05:28:20;;;;;;;4.10;2.20;;;14.20;99.90;;;;;;4157555;28;20390;-66
2024/03/15 05:30:23;;;;;;;2.75;2.13;;;14.20;99.90;;;;;;4153763;28;20050;-67
2024/03/15 05:32:23;;;;;;;3.50;2.20;;;14.20;99.90;;;;;;4162320;28;20489;-65
2024/03/15 05:34:26;;;;;;;4.47;2.15;;;14.20;99.90;;;;;;4158042;28;20045;-67
2024/03/15 05:36:27;;;;;;;3.10;2.00;;;14.10;99.90;;;;;;4155058;28;20110;-66
2024/03/15 05:38:27;;;;;;;4.38;2.80;;;14.10;99.90;;;;;;4157966;28;20025;-67
2024/03/15 05:40:28;;;;;;;7.80;2.40;;;14.20;99.90;;;;;;4153696;28;20085;-65
2024/03/15 05:42:31;;;;;;;3.85;2.47;;;14.10;99.90;;;;;;4155711;28;20038;-66
2024/03/15 05:44:33;;;;;;;7.30;2.60;;;14.20;99.90;;;;;;4147717;28;20045;-66
2024/03/15 05:46:34;;;;;;;3.80;2.47;;;14.10;99.90;;;;;;4152775;28;20050;-66
2024/03/15 05:48:37;;;;;;;5.20;2.38;;;14.10;99.90;;;;;;4156449;28;20029;-66
2024/03/15 05:50:38;;;;;;;3.88;2.22;;;14.10;99.90;;;;;;4155530;28;20034;-66
2024/03/15 05:52:39;;;;;;;4.70;2.80;;;14.10;99.90;;;;;;4154169;28;20037;-66
2024/03/15 05:54:42;;;;;;;5.55;2.25;;;14.10;99.90;;;;;;4159994;28;20034;-60
2024/03/15 05:56:43;;;;;;;6.22;2.45;;;14.10;99.90;;;;;;4157937;28;20087;-60
2024/03/15 05:58:43;;;;;;;5.88;2.55;;;14.10;99.90;;;;;;4154403;28;20033;-60
2024/03/15 06:00:44;;;;;;;4.97;2.30;;;14.10;99.90;;;;;;4156348;28;20037;-60
2024/03/15 06:02:45;;;;;;;4.60;2.20;;;14.10;99.90;;;;;;4152203;28;20036;-60
2024/03/15 06:04:45;;;;;;;5.47;2.53;;;14.10;99.90;;;;;;4159512;28;20058;-60
2024/03/15 06:06:46;;;;;;;3.65;2.20;;;14.10;99.90;;;;;;4158219;28;20540;-60
2024/03/15 06:08:48;;;;;;;5.95;2.45;;;14.10;99.90;;;;;;4168190;28;20037;-60
2024/03/15 06:10:48;;;;;;;4.85;2.70;;;14.10;99.90;;;;;;4158203;28;20480;-60
2024/03/15 06:12:50;;;;;;;4.40;2.75;;;14.10;99.90;;;;;;4158602;28;20194;-60
2024/03/15 06:14:51;;;;;;;5.67;2.50;;;14.00;99.90;;;;;;4156944;28;20033;-59
2024/03/15 06:16:51;;;;;;;4.72;2.40;;;14.10;99.90;;;;;;4154992;28;20271;-60
2024/03/15 06:18:53;;;;;;;3.90;2.15;;;14.10;99.90;;;;;;4158895;28;20041;-60
2024/03/15 06:20:53;;;;;;;3.90;2.22;;;14.10;99.90;;;;;;4156249;28;20079;-59
2024/03/15 06:22:54;;;;;;;3.17;1.80;;;14.00;99.90;;;;;;4154903;28;20108;-59
2024/03/15 06:24:57;;;;;;;5.43;2.20;;;14.10;99.90;;;;;;4159061;28;20057;-59
2024/03/15 06:26:59;;;;;;;3.58;2.33;;;14.10;99.90;;;;;;4148011;28;20478;-60
2024/03/15 06:29:00;;;;;;;4.65;2.45;;;14.10;99.90;;;;;;4157245;28;20099;-60
2024/03/15 06:31:01;;;;;;;3.25;2.17;;;14.00;99.90;;;;;;4157149;28;20474;-60
2024/03/15 06:33:02;;;;;;;3.50;2.30;;;14.10;99.90;;;;;;4157581;28;20068;-60
2024/03/15 06:35:18;;;;;;;4.32;2.30;;;14.10;99.90;;;;;;4158232;28;20436;-61
2024/03/15 06:37:22;;;;;;;4.07;2.20;;;14.10;99.90;;;;;;4155413;28;20533;-60
2024/03/15 06:39:24;;;;;;;6.13;2.58;;;14.10;99.90;;;;;;4150925;28;20040;-59
2024/03/15 06:43:35;;;;;;;5.45;2.33;;;14.10;99.90;;;;;;4156150;28;20427;-59
2024/03/15 06:45:45;;;;;;;3.80;2.35;;;14.10;99.90;;;;;;4155066;28;20072;-59
2024/03/15 06:47:52;;;;;;;5.13;2.60;;;14.10;99.90;;;;;;4152243;28;20046;-60
2024/03/15 06:50:06;;;;;;;4.00;2.50;;;14.10;99.90;;;;;;4155510;28;20144;-60
2024/03/15 06:54:26;;;;;;;6.13;2.33;;;14.20;99.90;;;;;;4155619;28;20034;-59
2024/03/15 06:56:27;;;;;;;7.00;2.50;;;14.20;99.90;;;;;;4156208;28;20570;-60
2024/03/15 06:58:28;;;;;;;4.53;2.72;;;14.10;99.90;;;;;;4152089;28;20037;-59
2024/03/15 07:00:30;;;;;;;7.60;2.70;;;14.20;99.90;;;;;;4154532;28;20057;-60
2024/03/15 07:02:31;;;;;;;;;;;14.20;99.90;;;;;;4153198;28;20036;-59
2024/03/15 07:04:32;;;;;;;4.75;2.38;;;14.20;99.90;;;;;;4159123;28;19925;-64
2024/03/15 07:06:33;;;;;;;6.57;2.60;;;14.20;99.90;;;;;;4152524;28;20112;-64
2024/03/15 07:08:33;;;;;;;5.75;2.60;;;14.20;99.90;;;;;;4156303;28;20049;-64
2024/03/15 07:10:34;;;;;;;5.18;2.50;;;14.20;99.90;;;;;;4142153;28;20498;-64
2024/03/15 07:12:34;;;;;;;5.20;2.55;;;14.30;99.90;;;;;;4155320;28;20414;-64
2024/03/15 07:14:36;;;;;;;3.63;2.10;;;14.30;99.90;;;;;;4152129;28;20036;-64
2024/03/15 07:16:36;;;;;;;6.10;2.67;;;14.30;99.90;;;;;;4156111;28;20037;-64
2024/03/15 07:18:37;;;;;;;3.92;2.17;;;14.30;99.90;;;;;;4155283;28;20124;-64
2024/03/15 07:20:40;;;;;;;4.30;2.33;;;14.30;99.90;;;;;;4150301;28;20034;-64
2024/03/15 07:22:41;;;;;;;3.95;2.20;;;14.30;99.90;;;;;;4155349;28;20448;-64
2024/03/15 07:24:43;;;;;;;4.63;2.30;;;14.30;99.90;;;;;;4156169;28;20403;-64
2024/03/15 07:26:44;;;;;;;7.18;2.55;;;14.30;99.90;;;;;;4157127;28;20030;-64
2024/03/15 07:28:45;;;;;;;3.25;2.13;;;14.30;99.90;;;;;;4155960;28;20048;-64
2024/03/15 07:30:46;;;;;;;4.68;2.33;;;14.30;99.90;;;;;;4155792;28;20486;-63
2024/03/15 07:32:46;;;;;;;3.53;1.95;;;14.30;99.90;;;;;;4156440;28;20025;-63
2024/03/15 07:34:47;;;;;;;4.32;2.10;;;14.40;99.90;;;;;;4157397;28;20048;-64
2024/03/15 07:36:48;;;;;;;4.80;2.40;;;14.40;99.90;;;;;;4150000;28;20033;-64
2024/03/15 07:38:51;;;;;;;4.30;2.22;;;14.40;99.90;;;;;;4153929;28;20056;-64
2024/03/15 07:40:52;;;;;;;5.10;2.15;;;14.40;99.90;;;;;;4150619;28;20037;-64
2024/03/15 07:42:54;;;;;;;4.53;2.45;;;14.40;99.90;;;;;;4157298;28;20034;-64
2024/03/15 07:44:55;;;;;;;4.70;2.47;;;14.50;99.90;;;;;;4157751;28;20033;-64
2024/03/15 07:46:58;;;;;;;5.80;2.50;;;14.50;99.90;;;;;;4153152;28;20079;-64
2024/03/15 07:48:59;;;;;;;6.63;2.92;;;14.50;99.90;;;;;;4154417;28;20124;-64
2024/03/15 07:51:01;;;;;;;4.72;2.60;;;14.50;99.90;;;;;;4151449;28;20481;-64
2024/03/15 07:53:03;;;;;;;5.78;2.60;;;14.50;99.90;;;;;;4151169;28;20037;-64
2024/03/15 07:55:04;;;;;;;6.78;2.65;;;14.40;99.90;;;;;;4152476;28;20061;-64
2024/03/15 07:57:04;;;;;;;5.70;2.33;;;14.50;99.90;;;;;;4146265;28;20041;-64
2024/03/15 07:59:05;;;;;;;4.72;2.35;;;14.50;99.90;;;;;;4144100;28;20519;-64
2024/03/15 08:01:09;;;;;;;3.15;1.98;;;14.50;99.90;;;;;;4145008;28;20543;-63
2024/03/15 08:03:10;;;;;;;3.30;2.20;;;14.60;99.90;;;;;;4153881;28;20514;-64
2024/03/15 08:05:12;;;;;;;6.47;2.72;;;14.60;99.90;;;;;;4154165;28;20049;-63
2024/03/15 08:07:14;;;;;;;4.65;2.35;;;14.60;99.90;;;;;;4153599;28;20037;-64
2024/03/15 08:09:15;;;;;;;4.72;2.30;;;14.60;99.90;;;;;;4153711;28;20049;-64
2024/03/15 08:11:16;;;;;;;5.25;2.40;;;14.60;99.90;;;;;;4152733;28;20087;-64
2024/03/15 08:13:21;;;;;;;5.15;2.28;;;14.60;99.90;;;;;;4136078;28;20033;-64
2024/03/15 08:15:23;;;;;;;4.63;2.42;;;14.60;99.90;;;;;;4147796;28;20406;-73
2024/03/15 08:17:24;;;;;;;3.75;2.10;;;14.70;99.90;;;;;;4149289;28;20045;-74
2024/03/15 08:19:24;;;;;;;5.13;2.58;;;14.70;99.90;;;;;;4150102;28;20037;-79
2024/03/15 08:21:25;;;;;;;5.30;2.20;;;14.70;99.90;;;;;;4153592;28;20040;-72
2024/03/15 08:23:26;;;;;;;5.55;2.30;;;14.70;99.90;;;;;;4156108;28;20029;-74
2024/03/15 08:25:27;;;;;;;4.38;2.30;;;14.70;99.90;;;;;;4155731;28;20060;-73
2024/03/15 08:27:29;;;;;;;4.07;2.50;;;14.80;99.90;;;;;;4157955;28;20033;-74
2024/03/15 08:29:30;;;;;;;5.50;2.83;;;14.70;99.90;;;;;;4158002;28;20042;-72
2024/03/15 08:31:31;;;;;;;3.72;2.38;;;14.80;99.90;;;;;;4156566;28;20037;-73
2024/03/15 08:33:32;;;;;;;4.60;2.50;;;14.80;99.90;;;;;;4154726;28;20065;-73
2024/03/15 08:35:33;;;;;;;6.18;2.70;;;14.80;99.90;;;;;;4157635;28;20032;-73
2024/03/15 08:37:34;;;;;;;4.55;2.35;;;14.80;99.90;;;;;;4156926;28;20092;-74
2024/03/15 08:39:35;;;;;;;5.60;2.65;;;14.80;99.90;;;;;;4159122;28;20033;-74
2024/03/15 08:41:36;;;;;;;3.30;2.38;;;14.90;99.90;;;;;;4155577;28;20044;-73
2024/03/15 08:43:37;;;;;;;5.20;2.70;;;14.90;99.90;;;;;;4160567;28;20083;-73
2024/03/15 08:45:38;;;;;;;5.07;2.47;;;14.90;99.90;;;;;;4151126;28;20037;-73
2024/03/15 08:47:39;;;;;;;10.50;2.55;;;14.90;99.90;;;;;;4138332;28;20096;-73
2024/03/15 08:49:40;;;;;;;6.65;2.75;;;15.00;99.90;;;;;;4153854;28;20042;-74
2024/03/15 08:51:44;;;;;;;5.47;2.63;;;15.00;99.90;;;;;;4159056;28;20053;-73
2024/03/15 08:53:47;;;;;;;5.78;2.47;;;15.00;99.90;;;;;;4159243;28;20045;-73
2024/03/15 08:55:48;;;;;;;6.10;2.85;;;14.90;99.90;;;;;;4153634;28;20042;-73
2024/03/15 08:57:49;;;;;;;7.18;2.65;;;14.90;99.90;;;;;;4156987;28;20362;-73
2024/03/15 08:59:50;;;;;;;4.75;2.55;;;14.90;99.90;;;;;;4157335;28;20056;-74
2024/03/15 09:01:53;;;;;;;8.52;2.63;;;15.00;99.90;;;;;;4149971;28;20072;-73
2024/03/15 09:03:54;;;;;;;;;;;15.00;99.90;;;;;;4155101;28;20049;-74
2024/03/15 09:05:55;;;;;;;5.20;2.30;;;15.10;99.90;;;;;;4153554;28;20456;-73
2024/03/15 09:07:57;;;;;;;2.88;2.20;;;15.10;99.90;;;;;;4147590;28;20059;-73
2024/03/15 09:09:58;;;;;;;3.85;2.22;;;15.10;99.90;;;;;;4142958;28;20092;-73
2024/03/15 09:11:59;;;;;;;5.82;2.50;;;15.10;99.90;;;;;;4152087;28;20033;-73
2024/03/15 09:14:00;;;;;;;5.65;2.70;;;15.10;99.90;;;;;;4152466;28;20037;-72
2024/03/15 09:16:02;;;;;;;5.97;2.60;;;15.20;99.90;;;;;;4150327;28;20449;-73
2024/03/15 09:18:02;;;;;;;5.53;2.42;;;15.30;99.90;;;;;;4152214;28;20034;-73
2024/03/15 09:20:09;;;;;;;3.75;2.00;;;15.40;99.90;;;;;;4183880;28;20067;-74
2024/03/15 09:22:12;;;;;;;5.22;2.53;;;15.60;99.90;;;;;;4149221;28;20052;-75
2024/03/15 09:24:13;;;;;;;6.78;2.65;;;15.70;99.90;;;;;;4151165;28;20460;-74
2024/03/15 09:26:16;;;;;;;4.03;2.08;;;15.90;99.90;;;;;;4155466;28;20069;-74
2024/03/15 09:28:18;;;;;;;4.20;2.15;;;16.10;99.90;;;;;;4153465;28;20072;-74
2024/03/15 09:30:26;;;;;;;5.90;2.33;;;16.20;99.90;;;;;;4142237;28;20060;-74
2024/03/15 09:32:31;;;;;;;3.78;1.90;;;16.40;99.90;;;;;;4151758;28;20052;-74
2024/03/15 09:34:33;;;;;;;4.07;1.95;;;16.60;99.90;;;;;;4154694;28;20037;-73
2024/03/15 09:36:33;;;;;;;4.37;2.10;;;16.80;99.90;;;;;;4151856;28;20029;-73
2024/03/15 09:38:34;;;;;;;4.47;2.25;;;16.80;99.90;;;;;;4152007;28;20367;-73
2024/03/15 09:40:35;;;;;;;5.60;2.10;;;16.90;99.90;;;;;;4147371;28;20049;-73
2024/03/15 09:42:36;;;;;;;3.92;2.00;;;16.90;99.90;;;;;;4149721;28;20272;-73
2024/03/15 09:44:37;;;;;;;6.45;2.42;;;16.80;99.90;;;;;;4153542;28;20049;-73
2024/03/15 09:46:37;;;;;;;3.28;1.60;;;16.80;99.90;;;;;;4153448;28;20541;-73
2024/03/15 09:48:40;;;;;;;4.55;2.08;;;16.70;99.90;;;;;;4151058;28;20065;-73
2024/03/15 09:50:44;;;;;;;3.85;1.75;;;16.70;99.90;;;;;;4149187;28;20494;-73
2024/03/15 09:52:46;;;;;;;5.28;1.73;;;16.70;99.90;;;;;;4154953;28;20068;-73
2024/03/15 09:54:47;;;;;;;3.42;1.60;;;16.60;99.90;;;;;;4151756;28;20559;-73
2024/03/15 09:56:50;;;;;;;3.97;1.80;;;16.60;99.90;;;;;;4153572;28;20046;-73
2024/03/15 09:58:53;;;;;;;;;;;16.50;99.90;;;;;;4154075;28;20045;-74
2024/03/15 10:00:53;;;;;;;4.13;1.80;;;16.50;99.90;;;;;;4151474;28;20003;-73
2024/03/15 10:02:54;;;;;;;4.05;1.80;;;16.50;99.90;;;;;;4153385;28;20037;-73
2024/03/15 10:04:54;;;;;;;3.42;1.60;;;16.40;99.90;;;;;;4155161;28;20307;-73
2024/03/15 10:06:55;;;;;;;3.17;1.65;;;16.40;99.90;;;;;;4155180;28;20037;-73
2024/03/15 10:08:56;;;;;;;3.53;1.45;;;16.40;99.90;;;;;;4151863;28;20053;-73
2024/03/15 10:10:57;;;;;;;2.58;1.42;;;16.40;99.90;;;;;;4149137;28;20040;-73
2024/03/15 10:12:58;;;;;;;4.60;2.00;;;16.40;99.90;;;;;;4154952;28;20033;-73
2024/03/15 10:14:59;;;;;;;3.28;1.45;;;16.40;99.90;;;;;;4154742;28;20029;-73
2024/03/15 10:17:00;;;;;;;5.63;1.70;;;16.40;99.90;;;;;;4146647;28;20030;-73
2024/03/15 10:19:01;;;;;;;4.00;1.60;;;16.40;99.90;;;;;;4153432;28;20367;-73
2024/03/15 10:21:02;;;;;;;3.83;1.45;;;16.40;99.90;;;;;;4146629;28;20453;-72
2024/03/15 10:23:10;;;;;;;5.00;1.58;;;16.40;99.90;;;;;;4143650;28;20033;-72
2024/03/15 10:25:15;;;;;;;3.17;1.40;;;16.40;99.90;;;;;;4151955;28;20620;-73
2024/03/15 10:27:16;;;;;;;3.72;1.60;;;16.40;99.90;;;;;;4153984;28;20126;-73
2024/03/15 10:29:17;;;;;;;3.92;1.38;;;16.30;99.90;;;;;;4152578;28;20049;-73
2024/03/15 10:31:17;;;;;;;6.03;1.83;;;16.30;99.90;;;;;;4149843;28;20113;-74
2024/03/15 10:33:18;;;;;;;3.58;1.42;;;16.30;99.90;;;;;;4152819;28;20456;-74
2024/03/15 10:35:19;;;;;;;6.20;1.65;;;16.20;99.90;;;;;;4142866;28;20048;-74
2024/03/15 10:37:21;;;;;;;5.75;1.40;;;16.30;99.90;;;;;;4148658;28;20410;-74